Time;durP1;ratioP1;P1;durP2;ratioP2;P2;SDS_P1;SDS_P2;PMS_P1;PMS_P2;Temp;Humidity;BMP_temperature;BMP_pressure;BME280_temperature;BME280_humidity;BME280_pressure;Samples;Min_cycle;Max_cycle;Signal;HPM_P1;HPM_P2
2021/01/13 00:01:44;;;;;;;5.15;2.80;;;5.50;70.40;;;;;;2488052;55;20982;-76
2021/01/13 00:04:11;;;;;;;4.10;2.20;;;5.50;70.30;;;;;;2487089;55;20961;-76
2021/01/13 00:06:38;;;;;;;5.70;3.03;;;5.40;70.10;;;;;;2486538;55;20945;-76
2021/01/13 00:09:05;;;;;;;5.15;2.83;;;5.40;69.90;;;;;;2481503;55;20973;-76
2021/01/13 00:11:32;;;;;;;4.47;2.47;;;5.40;69.80;;;;;;2485501;55;20993;-76
2021/01/13 00:13:59;;;;;;;5.12;2.40;;;5.30;69.50;;;;;;2479130;55;20976;-76
2021/01/13 00:16:25;;;;;;;6.53;2.90;;;5.30;69.40;;;;;;2484853;55;20901;-76
2021/01/13 00:18:52;;;;;;;5.25;2.45;;;5.20;69.30;;;;;;2488828;55;21867;-76
2021/01/13 00:21:29;;;;;;;4.75;2.62;;;5.20;69.00;;;;;;2488455;55;20948;-76
2021/01/13 00:23:55;;;;;;;5.53;2.70;;;5.10;68.70;;;;;;2487559;55;21000;-76
2021/01/13 00:26:21;;;;;;;7.07;2.67;;;5.00;68.70;;;;;;2490838;55;21021;-76
2021/01/13 00:28:51;;;;;;;6.43;2.85;;;5.00;68.90;;;;;;2486859;55;20985;-77
2021/01/13 00:31:18;;;;;;;6.53;2.65;;;4.90;68.90;;;;;;2486185;55;21412;-76
2021/01/13 00:33:49;;;;;;;5.72;2.83;;;4.80;68.90;;;;;;2488695;55;20917;-77
2021/01/13 00:36:33;;;;;;;4.78;2.42;;;4.80;69.10;;;;;;2483863;55;20928;-77
2021/01/13 00:38:59;;;;;;;4.70;2.62;;;4.70;69.10;;;;;;2479699;55;21024;-76
2021/01/13 00:41:26;;;;;;;5.15;2.50;;;4.70;69.10;;;;;;2473202;55;21105;-76
2021/01/13 00:43:53;;;;;;;5.03;2.42;;;4.60;69.00;;;;;;2487142;55;21004;-77
2021/01/13 00:46:34;;;;;;;6.85;2.70;;;4.50;68.90;;;;;;2483570;55;20963;-77
2021/01/13 00:49:01;;;;;;;5.15;2.50;;;4.50;69.00;;;;;;2484011;55;20981;-77
2021/01/13 00:51:40;;;;;;;5.28;2.83;;;4.40;69.00;;;;;;2487204;55;20957;-76
2021/01/13 00:54:10;;;;;;;5.45;3.12;;;4.40;69.10;;;;;;2487398;55;20941;-75
2021/01/13 00:56:46;;;;;;;7.55;4.05;;;4.40;69.10;;;;;;2487143;55;20921;-76
2021/01/13 00:59:13;;;;;;;6.90;3.22;;;4.30;69.10;;;;;;2256021;56;21021;-76
2021/01/13 01:01:40;;;;;;;4.57;2.65;;;4.30;69.10;;;;;;2486661;55;21862;-76
2021/01/13 01:04:08;;;;;;;8.40;3.05;;;4.20;69.10;;;;;;2483255;55;20916;-76
2021/01/13 01:06:34;;;;;;;5.65;3.17;;;4.20;69.10;;;;;;2485486;55;20964;-76
2021/01/13 01:09:01;;;;;;;6.35;3.20;;;4.10;68.90;;;;;;2489586;55;21032;-76
2021/01/13 01:11:33;;;;;;;4.78;2.67;;;4.10;68.80;;;;;;2489426;55;20989;-76
2021/01/13 01:14:00;;;;;;;7.15;2.42;;;4.00;68.80;;;;;;2486981;55;21016;-76
2021/01/13 01:16:33;;;;;;;5.35;2.30;;;4.10;68.90;;;;;;2483578;55;20960;-76
2021/01/13 01:19:00;;;;;;;4.22;2.50;;;3.90;68.80;;;;;;2484821;55;20993;-76
2021/01/13 01:21:26;;;;;;;5.40;3.03;;;3.70;68.70;;;;;;2262470;56;20972;-75
2021/01/13 01:23:53;;;;;;;4.90;2.72;;;3.80;68.90;;;;;;2484575;55;21048;-76
2021/01/13 01:26:20;;;;;;;8.85;2.67;;;3.80;69.10;;;;;;2260254;56;20955;-75
2021/01/13 01:28:47;;;;;;;5.85;2.85;;;3.80;69.30;;;;;;2490517;55;21726;-76
2021/01/13 01:31:13;;;;;;;5.15;2.60;;;3.70;69.30;;;;;;2486860;55;21421;-75
2021/01/13 01:33:42;;;;;;;5.82;2.35;;;3.70;69.40;;;;;;2487970;55;22176;-75
2021/01/13 01:36:09;;;;;;;4.70;2.50;;;3.70;69.60;;;;;;2490116;55;21094;-75
2021/01/13 01:38:35;;;;;;;4.55;2.17;;;3.70;69.80;;;;;;2489180;55;22376;-75
2021/01/13 01:41:06;;;;;;;5.45;2.67;;;3.60;69.90;;;;;;2489681;55;20997;-74
2021/01/13 01:43:33;;;;;;;6.45;2.62;;;3.60;69.90;;;;;;2489527;55;21039;-75
2021/01/13 01:46:03;;;;;;;6.28;3.08;;;3.60;69.80;;;;;;2490050;55;20937;-74
2021/01/13 01:48:52;;;;;;;5.32;2.70;;;3.60;69.80;;;;;;2486146;55;20928;-74
2021/01/13 01:51:26;;;;;;;5.93;2.33;;;3.70;69.80;;;;;;2486178;55;21933;-74
2021/01/13 01:54:26;;;;;;;5.32;3.10;;;3.50;69.60;;;;;;2252488;56;21067;-74
2021/01/13 01:57:10;;;;;;;4.65;2.20;;;3.50;69.50;;;;;;2486112;55;20952;-74
2021/01/13 01:59:45;;;;;;;5.57;2.60;;;3.50;69.50;;;;;;2490215;55;20985;-74
2021/01/13 02:02:11;;;;;;;5.70;2.28;;;3.40;69.50;;;;;;2484507;55;21216;-74
2021/01/13 02:04:42;;;;;;;4.70;2.15;;;3.40;69.50;;;;;;2490531;55;21104;-74
2021/01/13 02:07:53;;;;;;;5.43;2.40;;;3.40;69.60;;;;;;2265697;56;20957;-73
2021/01/13 02:10:41;;;;;;;4.15;1.95;;;3.40;69.90;;;;;;2484111;55;21081;-73
2021/01/13 02:13:08;;;;;;;4.62;2.15;;;3.30;69.90;;;;;;2488124;55;21066;-73
2021/01/13 02:15:36;;;;;;;5.45;2.45;;;3.30;70.00;;;;;;2261275;56;21024;-73
2021/01/13 02:18:03;;;;;;;5.10;2.35;;;3.30;70.10;;;;;;2489423;55;20945;-73
2021/01/13 02:20:31;;;;;;;4.90;2.55;;;3.30;70.20;;;;;;2489517;55;21482;-73
2021/01/13 02:23:00;;;;;;;4.75;2.00;;;3.30;70.40;;;;;;2261490;56;21007;-73
2021/01/13 02:28:26;;;;;;;6.12;3.03;;;3.30;70.70;;;;;;2490353;55;20945;-73
2021/01/13 02:31:25;;;;;;;6.50;2.50;;;3.40;70.70;;;;;;2487583;55;20993;-73
2021/01/13 02:33:53;;;;;;;5.60;2.20;;;3.40;70.90;;;;;;2478652;55;20993;-73
2021/01/13 02:36:33;;;;;;;5.50;2.55;;;3.40;71.10;;;;;;2493271;55;21071;-74
2021/01/13 02:39:01;;;;;;;4.75;2.40;;;3.40;71.20;;;;;;2488885;55;21009;-73
2021/01/13 02:41:28;;;;;;;6.68;2.78;;;3.40;71.30;;;;;;2260891;56;20960;-73
2021/01/13 02:44:13;;;;;;;8.05;2.80;;;3.40;71.40;;;;;;2461215;55;21533;-72
2021/01/13 02:54:09;;;;;;;4.82;2.70;;;3.50;71.40;;;;;;2489305;55;21041;-73
2021/01/13 02:56:42;;;;;;;3.83;1.80;;;3.60;71.00;;;;;;2489424;55;20973;-73
2021/01/13 02:59:10;;;;;;;5.22;2.25;;;3.60;71.30;;;;;;2260301;56;20956;-73
2021/01/13 03:01:40;;;;;;;5.70;2.67;;;3.60;71.40;;;;;;2485181;55;20949;-73
2021/01/13 03:04:09;;;;;;;5.28;2.45;;;3.60;71.60;;;;;;2483485;55;21023;-73
2021/01/13 03:06:37;;;;;;;4.78;2.30;;;3.60;71.70;;;;;;2486685;55;21156;-73
2021/01/13 03:09:07;;;;;;;5.50;2.58;;;3.60;71.70;;;;;;2485716;55;21033;-73
2021/01/13 03:11:34;;;;;;;6.35;2.70;;;3.70;71.90;;;;;;2488772;55;21460;-73
2021/01/13 03:14:17;;;;;;;5.37;2.62;;;3.70;71.90;;;;;;2264020;56;20949;-72
2021/01/13 03:16:55;;;;;;;3.70;2.08;;;3.80;72.00;;;;;;2488822;55;21080;-72
2021/01/13 03:19:35;;;;;;;5.68;2.03;;;3.90;72.20;;;;;;2487342;55;20957;-73
2021/01/13 03:22:04;;;;;;;6.07;2.70;;;3.80;72.20;;;;;;2488957;55;20933;-74
2021/01/13 03:24:39;;;;;;;3.92;1.95;;;3.90;72.30;;;;;;2488356;55;20921;-73
2021/01/13 03:27:07;;;;;;;5.03;2.62;;;3.90;72.40;;;;;;2488700;55;20989;-73
2021/01/13 03:29:34;;;;;;;4.35;2.30;;;3.90;72.30;;;;;;2263185;56;20941;-74
2021/01/13 03:32:08;;;;;;;5.03;2.58;;;4.00;72.30;;;;;;2257448;56;21001;-73
2021/01/13 03:35:07;;;;;;;6.70;2.95;;;4.00;72.30;;;;;;2489860;55;21008;-73
2021/01/13 03:37:58;;;;;;;4.75;1.65;;;4.00;72.20;;;;;;2486108;55;20961;-73
2021/01/13 03:40:31;;;;;;;4.87;2.30;;;4.10;72.20;;;;;;2264301;56;20945;-73
2021/01/13 03:42:59;;;;;;;3.85;1.83;;;4.10;72.20;;;;;;2260152;56;20961;-74
2021/01/13 03:45:38;;;;;;;4.68;1.95;;;4.10;72.20;;;;;;2488100;55;20950;-73
2021/01/13 03:48:10;;;;;;;5.05;2.20;;;4.20;72.30;;;;;;2489695;55;20937;-72
2021/01/13 03:50:46;;;;;;;;;;;4.30;72.30;;;;;;2491629;55;20988;-73
2021/01/13 03:53:14;;;;;;;3.50;1.25;;;4.20;71.90;;;;;;2486210;55;20065;-73
2021/01/13 03:55:41;;;;;;;3.75;1.73;;;4.20;72.00;;;;;;2483208;55;20975;-72
2021/01/13 03:58:18;;;;;;;4.70;2.03;;;4.30;72.10;;;;;;2489780;55;20964;-73
2021/01/13 04:01:05;;;;;;;5.50;2.50;;;4.30;72.10;;;;;;2490712;55;21898;-73
2021/01/13 04:03:35;;;;;;;3.72;1.65;;;4.30;72.70;;;;;;2467395;55;20921;-72
2021/01/13 04:06:09;;;;;;;5.43;2.35;;;4.30;72.00;;;;;;2263099;56;21013;-73
2021/01/13 04:12:11;;;;;;;6.65;2.30;;;4.40;72.00;;;;;;2260675;56;21004;-72
2021/01/13 04:14:48;;;;;;;3.75;1.50;;;4.40;71.90;;;;;;2487068;55;20965;-72
2021/01/13 04:17:14;;;;;;;4.72;1.20;;;4.40;71.90;;;;;;2485130;55;20971;-73
2021/01/13 04:19:43;;;;;;;8.00;2.60;;;4.40;71.80;;;;;;2484760;55;20982;-73
2021/01/13 04:22:11;;;;;;;6.03;2.78;;;4.40;71.90;;;;;;2486151;55;21681;-74
2021/01/13 04:24:39;;;;;;;6.75;3.12;;;4.40;71.90;;;;;;2486707;55;21012;-74
2021/01/13 04:27:06;;;;;;;6.25;2.40;;;4.40;71.90;;;;;;2487081;55;20921;-73
2021/01/13 04:29:34;;;;;;;4.55;1.92;;;4.40;71.90;;;;;;2484796;55;20996;-73
2021/01/13 04:32:01;;;;;;;3.87;2.00;;;4.40;71.90;;;;;;2264100;56;20972;-73
2021/01/13 04:34:29;;;;;;;4.55;2.30;;;4.50;72.10;;;;;;2487803;55;21032;-72
2021/01/13 04:36:56;;;;;;;3.20;1.90;;;4.50;72.10;;;;;;2491376;55;20913;-73
2021/01/13 04:39:24;;;;;;;3.92;2.00;;;4.30;71.80;;;;;;2491538;55;21362;-74
2021/01/13 04:42:08;;;;;;;4.80;2.37;;;4.60;72.10;;;;;;2262646;56;21064;-73
2021/01/13 04:45:02;;;;;;;5.62;2.53;;;4.50;71.90;;;;;;2261533;56;21001;-73
2021/01/13 04:47:49;;;;;;;3.60;1.73;;;4.50;71.80;;;;;;2485282;55;21006;-73
2021/01/13 04:50:19;;;;;;;4.32;1.65;;;4.60;71.90;;;;;;2483535;55;21008;-73
2021/01/13 04:52:47;;;;;;;4.35;1.90;;;4.60;71.90;;;;;;2261350;56;20989;-73
2021/01/13 04:55:33;;;;;;;4.22;1.87;;;4.60;71.90;;;;;;2486845;55;21020;-73
2021/01/13 04:58:35;;;;;;;4.45;1.98;;;4.60;71.90;;;;;;2484072;55;21048;-72
2021/01/13 05:04:34;;;;;;;5.47;1.95;;;4.60;71.80;;;;;;2482146;55;20925;-72
2021/01/13 05:07:42;;;;;;;3.80;1.55;;;4.70;71.50;;;;;;2477635;55;20929;-73
2021/01/13 05:10:15;;;;;;;3.62;1.77;;;4.70;71.50;;;;;;2475815;55;21410;-73
2021/01/13 05:12:47;;;;;;;3.80;1.70;;;4.70;71.80;;;;;;2474228;55;21439;-73
2021/01/13 05:15:15;;;;;;;6.15;1.92;;;4.70;71.80;;;;;;2249824;56;21366;-72
2021/01/13 05:18:05;;;;;;;5.10;2.05;;;4.70;71.90;;;;;;2470037;55;21241;-73
2021/01/13 05:20:33;;;;;;;9.32;3.03;;;4.70;71.90;;;;;;2254107;56;20954;-74
2021/01/13 05:23:00;;;;;;;7.57;3.28;;;4.80;71.90;;;;;;2478087;55;20940;-73
2021/01/13 05:25:59;;;;;;;7.00;3.25;;;4.70;71.80;;;;;;2480576;55;20941;-73
2021/01/13 05:28:26;;;;;;;7.57;4.00;;;4.80;71.70;;;;;;2479091;55;20929;-73
2021/01/13 05:30:56;;;;;;;5.75;3.05;;;4.80;71.80;;;;;;2483397;55;20945;-73
2021/01/13 05:33:29;;;;;;;7.03;3.30;;;4.80;71.80;;;;;;2483239;55;20974;-73
2021/01/13 05:35:58;;;;;;;6.18;3.50;;;4.80;71.70;;;;;;2481150;55;20969;-73
2021/01/13 05:38:57;;;;;;;6.78;3.40;;;4.80;71.70;;;;;;2485662;55;21472;-73
2021/01/13 05:41:26;;;;;;;8.38;3.62;;;4.80;71.60;;;;;;2486560;55;21001;-72
2021/01/13 05:43:53;;;;;;;7.97;3.58;;;4.80;71.50;;;;;;2482275;55;21049;-73
2021/01/13 05:46:21;;;;;;;7.22;3.25;;;4.80;71.60;;;;;;2481836;55;20957;-73
2021/01/13 05:48:52;;;;;;;6.07;3.30;;;4.80;71.60;;;;;;2486199;55;21046;-74
2021/01/13 05:51:30;;;;;;;6.30;2.90;;;4.80;71.70;;;;;;2258887;56;20999;-74
2021/01/13 05:53:57;;;;;;;10.48;4.78;;;4.80;71.70;;;;;;2488948;55;20941;-73
2021/01/13 05:56:27;;;;;;;11.27;5.68;;;4.80;71.70;;;;;;2258875;56;21024;-73
2021/01/13 05:59:03;;;;;;;6.65;4.00;;;4.90;71.90;;;;;;2487250;55;20932;-73
2021/01/13 06:01:58;;;;;;;6.80;3.80;;;4.90;71.80;;;;;;2477826;55;20969;-73
2021/01/13 06:04:24;;;;;;;5.45;2.85;;;4.90;71.80;;;;;;2488303;55;20966;-74
2021/01/13 06:07:18;;;;;;;7.20;3.10;;;4.90;71.90;;;;;;2486869;55;21013;-73
2021/01/13 06:09:44;;;;;;;5.60;2.90;;;4.90;71.80;;;;;;2483289;55;20941;-74
2021/01/13 06:12:18;;;;;;;8.63;3.62;;;4.90;71.90;;;;;;2479609;55;20956;-74
2021/01/13 06:14:49;;;;;;;7.15;3.58;;;5.00;71.90;;;;;;2487038;55;21001;-74
2021/01/13 06:17:22;;;;;;;6.40;3.00;;;5.00;71.90;;;;;;2488079;55;21450;-73
2021/01/13 06:19:52;;;;;;;7.82;3.95;;;5.00;71.90;;;;;;2258467;56;21347;-74
2021/01/13 06:22:29;;;;;;;10.02;5.30;;;5.00;71.90;;;;;;2253705;56;20937;-74
2021/01/13 06:25:11;;;;;;;9.43;4.68;;;5.00;71.80;;;;;;2260401;56;20977;-74
2021/01/13 06:27:56;;;;;;;;;;;5.00;71.80;;;;;;2264715;56;21434;-74
2021/01/13 06:30:28;;;;;;;10.13;5.05;;;5.00;71.30;;;;;;2485863;55;20081;-74
2021/01/13 06:33:06;;;;;;;7.12;3.58;;;5.10;71.60;;;;;;2487105;55;21096;-73
2021/01/13 06:38:18;;;;;;;8.02;4.50;;;5.00;71.50;;;;;;2482163;55;21024;-74
2021/01/13 06:40:44;;;;;;;6.30;3.67;;;5.00;71.10;;;;;;2483216;55;21028;-73
2021/01/13 06:43:11;;;;;;;8.07;3.70;;;5.00;71.30;;;;;;2484651;55;20933;-73
2021/01/13 06:45:38;;;;;;;5.53;3.08;;;5.00;71.40;;;;;;2260343;56;20956;-73
2021/01/13 06:48:05;;;;;;;5.47;2.20;;;5.00;71.30;;;;;;2260282;56;20965;-74
2021/01/13 06:50:45;;;;;;;4.50;2.30;;;5.00;71.30;;;;;;2476440;55;20993;-74
2021/01/13 06:53:12;;;;;;;5.15;2.05;;;5.00;71.10;;;;;;2488467;55;20992;-74
2021/01/13 06:55:39;;;;;;;3.62;1.80;;;5.00;71.30;;;;;;2259523;56;20933;-74
2021/01/13 06:58:15;;;;;;;4.05;1.58;;;5.00;71.30;;;;;;2487776;55;21056;-73
2021/01/13 07:01:00;;;;;;;5.35;1.67;;;5.00;71.30;;;;;;2477432;55;21081;-74
2021/01/13 07:03:30;;;;;;;3.47;1.70;;;5.00;71.20;;;;;;2486231;55;20997;-74
2021/01/13 07:06:03;;;;;;;4.47;1.98;;;5.00;71.20;;;;;;2488684;55;21004;-74
2021/01/13 07:08:29;;;;;;;;;;;5.00;71.10;;;;;;2490091;55;20994;-73
2021/01/13 07:11:10;;;;;;;4.97;2.00;;;5.00;70.70;;;;;;2485176;55;20686;-74
2021/01/13 07:13:41;;;;;;;4.87;1.52;;;5.00;70.80;;;;;;2488852;55;20965;-74
2021/01/13 07:16:08;;;;;;;4.25;1.58;;;4.90;70.90;;;;;;2486715;55;21008;-74
2021/01/13 07:18:37;;;;;;;3.62;1.62;;;4.90;71.00;;;;;;2256721;56;21008;-73
2021/01/13 07:21:11;;;;;;;3.30;1.42;;;4.90;71.10;;;;;;2258352;56;21788;-73
2021/01/13 07:23:44;;;;;;;4.05;1.65;;;4.90;71.20;;;;;;2259355;56;24845;-74
2021/01/13 07:26:12;;;;;;;5.90;2.90;;;4.90;71.20;;;;;;2484535;55;20901;-73
2021/01/13 07:28:38;;;;;;;6.68;3.30;;;4.90;71.20;;;;;;2259925;56;21097;-74
2021/01/13 07:31:05;;;;;;;4.85;2.70;;;4.90;71.30;;;;;;2477038;55;21116;-73
2021/01/13 07:33:41;;;;;;;5.87;2.78;;;4.90;71.40;;;;;;2262436;56;20945;-73
2021/01/13 07:36:13;;;;;;;5.25;2.92;;;4.90;71.40;;;;;;2484329;55;20982;-74
2021/01/13 07:38:42;;;;;;;6.97;2.90;;;4.90;71.50;;;;;;2486805;55;21036;-74
2021/01/13 07:42:01;;;;;;;5.28;2.17;;;4.90;71.40;;;;;;2477695;55;21010;-74
2021/01/13 07:44:51;;;;;;;7.07;3.17;;;4.90;71.20;;;;;;2260051;56;21049;-74
2021/01/13 07:48:58;;;;;;;6.65;2.85;;;4.90;71.10;;;;;;2487963;55;21791;-74
2021/01/13 07:51:29;;;;;;;5.93;3.10;;;4.90;70.80;;;;;;2483171;55;21013;-74
2021/01/13 07:54:08;;;;;;;4.95;2.80;;;4.90;70.90;;;;;;2483779;55;21700;-74
2021/01/13 07:56:35;;;;;;;5.72;2.85;;;4.90;70.80;;;;;;2488913;55;20954;-74
2021/01/13 08:00:39;;;;;;;7.95;3.83;;;4.90;70.90;;;;;;2482542;55;21837;-73
2021/01/13 08:16:01;;;;;;;24.12;9.15;;;4.90;70.80;;;;;;2262903;55;20945;-74
2021/01/13 08:25:52;;;;;;;8.18;4.80;;;4.90;70.80;;;;;;2482671;55;20933;-74
2021/01/13 08:28:19;;;;;;;9.20;5.37;;;4.90;71.20;;;;;;2485268;55;21862;-75
2021/01/13 08:30:50;;;;;;;11.10;6.18;;;4.90;71.90;;;;;;2483605;55;21554;-74
2021/01/13 08:33:20;;;;;;;11.35;6.25;;;5.00;72.40;;;;;;2480465;55;21037;-74
2021/01/13 08:35:56;;;;;;;12.55;5.75;;;5.00;72.70;;;;;;2484139;55;20989;-75
2021/01/13 08:38:24;;;;;;;7.53;4.55;;;5.10;72.90;;;;;;2394887;55;1310466;-75
2021/01/13 08:40:51;;;;;;;6.32;3.92;;;5.10;73.00;;;;;;2483583;55;20957;-75
2021/01/13 08:43:33;;;;;;;8.57;4.18;;;5.20;73.10;;;;;;2487828;55;21012;-75
2021/01/13 08:46:00;;;;;;;7.07;3.67;;;5.20;73.00;;;;;;2486909;55;21833;-75
2021/01/13 08:48:37;;;;;;;8.13;4.15;;;5.30;73.10;;;;;;2482208;55;21734;-75
2021/01/13 08:51:14;;;;;;;12.23;6.45;;;5.30;73.00;;;;;;2485912;55;21379;-75
2021/01/13 08:53:41;;;;;;;10.23;4.95;;;5.40;73.00;;;;;;2488634;55;21418;-75
2021/01/13 08:56:08;;;;;;;7.87;4.10;;;5.40;72.90;;;;;;2485758;55;20999;-76
2021/01/13 08:58:34;;;;;;;8.35;4.62;;;5.50;73.00;;;;;;2481263;55;20980;-76
2021/01/13 09:01:10;;;;;;;9.57;4.62;;;5.50;73.00;;;;;;2452080;55;20977;-76
2021/01/13 09:03:45;;;;;;;8.18;3.95;;;5.50;73.00;;;;;;2482385;55;21238;-76
2021/01/13 09:06:24;;;;;;;7.68;3.95;;;5.60;73.00;;;;;;2483608;55;20945;-75
2021/01/13 09:09:10;;;;;;;7.03;3.90;;;5.60;72.80;;;;;;2487888;55;20973;-76
2021/01/13 09:11:41;;;;;;;6.62;3.78;;;5.70;73.00;;;;;;2261951;56;20981;-76
2021/01/13 09:14:20;;;;;;;7.87;3.78;;;5.70;73.10;;;;;;2488579;55;21009;-75
2021/01/13 09:16:56;;;;;;;5.65;3.40;;;5.80;73.20;;;;;;2482673;55;20984;-75
2021/01/13 09:19:38;;;;;;;10.15;3.65;;;5.80;73.30;;;;;;2487065;55;21037;-75
2021/01/13 09:22:19;;;;;;;7.00;3.92;;;5.90;73.10;;;;;;2463271;55;21024;-75
2021/01/13 09:24:51;;;;;;;6.70;3.83;;;6.00;73.20;;;;;;2487028;55;21077;-75
2021/01/13 09:27:31;;;;;;;5.82;3.67;;;6.00;73.00;;;;;;2488584;55;21482;-75
2021/01/13 09:29:57;;;;;;;6.78;3.40;;;6.00;73.70;;;;;;2482815;55;21039;-75
2021/01/13 09:32:24;;;;;;;7.05;3.90;;;6.10;73.10;;;;;;2485150;55;21005;-75
2021/01/13 09:34:53;;;;;;;8.20;3.75;;;6.10;73.30;;;;;;2482784;55;20957;-75
2021/01/13 09:37:22;;;;;;;7.57;4.50;;;6.20;73.30;;;;;;2483847;55;20974;-75
2021/01/13 09:39:56;;;;;;;7.40;4.45;;;6.30;73.30;;;;;;2483404;55;21584;-75
2021/01/13 09:42:41;;;;;;;21.12;9.95;;;6.30;73.10;;;;;;2488265;55;20997;-76
2021/01/13 09:45:08;;;;;;;12.52;6.75;;;6.40;73.20;;;;;;2486473;55;21808;-75
2021/01/13 09:47:39;;;;;;;10.35;6.22;;;6.50;73.50;;;;;;2485562;55;20960;-75
2021/01/13 09:50:07;;;;;;;11.38;5.82;;;6.50;73.50;;;;;;2484851;55;21040;-75
2021/01/13 09:52:43;;;;;;;11.43;4.80;;;6.50;73.40;;;;;;2480518;55;21008;-75
2021/01/13 09:55:11;;;;;;;9.30;4.53;;;6.60;73.10;;;;;;2486804;55;20981;-75
2021/01/13 09:57:42;;;;;;;7.10;4.20;;;6.60;73.30;;;;;;2256323;56;21025;-75
2021/01/13 10:00:15;;;;;;;7.45;4.45;;;6.70;73.20;;;;;;2488217;55;20966;-75
2021/01/13 10:02:42;;;;;;;8.38;4.50;;;6.70;73.50;;;;;;2483507;55;21041;-74
2021/01/13 10:05:12;;;;;;;9.52;4.53;;;6.80;73.20;;;;;;2256589;56;21040;-75
2021/01/13 10:07:40;;;;;;;8.02;4.47;;;6.80;73.20;;;;;;2485295;55;20957;-75
2021/01/13 10:10:07;;;;;;;9.50;5.25;;;6.80;73.30;;;;;;2477936;55;20960;-76
2021/01/13 10:13:13;;;;;;;8.57;4.80;;;6.90;73.50;;;;;;2484167;55;21169;-75
2021/01/13 10:15:40;;;;;;;9.57;5.00;;;7.00;73.20;;;;;;2480214;55;21001;-75
2021/01/13 10:18:06;;;;;;;9.98;5.32;;;7.10;74.40;;;;;;2484455;55;20913;-75
2021/01/13 10:20:36;;;;;;;8.98;4.55;;;7.20;74.80;;;;;;2484604;55;21098;-75
2021/01/13 10:23:02;;;;;;;8.05;4.62;;;7.30;75.10;;;;;;2479060;55;21012;-75
2021/01/13 10:25:30;;;;;;;9.32;4.68;;;7.50;74.90;;;;;;2255764;56;20941;-75
2021/01/13 10:27:58;;;;;;;7.97;4.45;;;7.60;75.00;;;;;;2483835;55;21010;-75
2021/01/13 10:30:25;;;;;;;6.78;3.85;;;7.70;74.40;;;;;;2485290;55;20941;-75
2021/01/13 10:32:55;;;;;;;9.55;4.70;;;7.80;74.20;;;;;;2485721;55;20969;-75
2021/01/13 10:35:23;;;;;;;9.20;5.68;;;7.90;74.00;;;;;;2477078;55;21796;-75
2021/01/13 10:37:52;;;;;;;8.80;4.90;;;7.90;73.70;;;;;;2486487;55;20977;-75
2021/01/13 10:40:19;;;;;;;8.15;4.95;;;8.00;73.60;;;;;;2462830;55;21087;-74
2021/01/13 10:42:57;;;;;;;8.88;4.80;;;8.10;73.40;;;;;;2488106;55;21016;-75
2021/01/13 10:45:29;;;;;;;8.23;4.25;;;8.10;72.80;;;;;;2481869;55;21021;-75
2021/01/13 10:48:00;;;;;;;7.72;4.30;;;8.20;73.00;;;;;;2484361;55;20989;-75
2021/01/13 10:50:31;;;;;;;6.87;4.03;;;8.20;73.00;;;;;;2486501;55;20989;-75
2021/01/13 10:52:59;;;;;;;8.82;4.32;;;8.30;72.60;;;;;;2476580;55;20941;-75
2021/01/13 10:55:55;;;;;;;8.10;4.57;;;8.30;72.90;;;;;;2466994;55;21080;-75
2021/01/13 10:58:22;;;;;;;8.20;4.72;;;8.40;72.50;;;;;;2475971;55;20933;-75
2021/01/13 11:00:48;;;;;;;7.37;4.40;;;8.50;73.30;;;;;;2255123;56;20961;-74
2021/01/13 11:03:16;;;;;;;7.95;4.32;;;8.60;73.30;;;;;;2460360;55;20930;-75
2021/01/13 11:05:45;;;;;;;6.97;3.53;;;8.70;73.30;;;;;;2250843;56;20969;-75
2021/01/13 11:08:13;;;;;;;6.85;3.92;;;8.80;73.60;;;;;;2462770;55;21545;-75
2021/01/13 11:10:40;;;;;;;7.72;4.12;;;8.90;73.60;;;;;;2471449;55;21009;-75
2021/01/13 11:13:12;;;;;;;8.88;4.22;;;9.00;73.00;;;;;;2241127;56;20964;-74
2021/01/13 11:15:39;;;;;;;7.10;3.83;;;9.10;72.10;;;;;;2467096;55;20978;-74
2021/01/13 11:18:09;;;;;;;8.27;3.50;;;9.10;71.50;;;;;;2472104;55;21429;-75
2021/01/13 11:20:35;;;;;;;5.80;3.40;;;9.20;71.30;;;;;;2471668;55;21061;-75
2021/01/13 11:23:06;;;;;;;5.80;2.92;;;9.20;71.30;;;;;;2249642;56;21002;-75
2021/01/13 11:25:37;;;;;;;6.85;3.58;;;9.20;71.70;;;;;;2474296;55;21508;-75
2021/01/13 11:28:08;;;;;;;4.87;2.90;;;9.30;72.40;;;;;;2481665;55;21024;-74
2021/01/13 11:30:39;;;;;;;9.43;3.80;;;9.40;72.90;;;;;;2261429;56;21893;-75
2021/01/13 11:33:07;;;;;;;7.35;3.70;;;9.50;72.90;;;;;;2265031;56;21064;-74
2021/01/13 11:35:40;;;;;;;6.25;3.45;;;9.60;73.20;;;;;;2478947;55;20986;-74
2021/01/13 11:38:42;;;;;;;7.05;3.72;;;9.70;73.90;;;;;;2261234;56;21001;-75
2021/01/13 11:42:12;;;;;;;7.97;3.95;;;9.80;72.10;;;;;;2487772;55;21044;-75
2021/01/13 11:46:42;;;;;;;8.18;3.83;;;9.90;70.90;;;;;;2469993;55;21790;-74
2021/01/13 11:49:49;;;;;;;6.70;2.85;;;9.90;69.20;;;;;;2488251;55;20989;-74
2021/01/13 11:52:17;;;;;;;6.62;3.22;;;9.80;69.20;;;;;;2483721;55;20961;-74
2021/01/13 11:54:50;;;;;;;5.90;3.00;;;9.80;70.20;;;;;;2484550;55;21005;-74
2021/01/13 11:57:36;;;;;;;4.82;2.72;;;9.80;70.20;;;;;;2478902;55;20921;-74
2021/01/13 12:00:18;;;;;;;6.90;3.53;;;9.80;70.30;;;;;;2479411;55;21005;-73
2021/01/13 12:03:45;;;;;;;5.78;3.40;;;9.90;70.80;;;;;;2485130;55;21446;-73
2021/01/13 12:06:13;;;;;;;6.18;3.85;;;10.00;67.40;;;;;;2467541;55;21033;-74
2021/01/13 12:08:39;;;;;;;10.50;4.03;;;10.00;68.70;;;;;;2485962;55;20989;-74
2021/01/13 12:11:09;;;;;;;5.95;3.60;;;10.00;69.00;;;;;;2482706;55;21045;-73
2021/01/13 12:13:42;;;;;;;8.50;3.80;;;10.10;68.70;;;;;;2261860;56;20976;-74
2021/01/13 12:16:22;;;;;;;5.72;3.20;;;10.10;68.50;;;;;;2485243;55;21725;-73
2021/01/13 12:18:50;;;;;;;6.57;3.50;;;10.20;68.30;;;;;;2487357;55;21041;-74
2021/01/13 12:21:27;;;;;;;8.98;4.30;;;10.10;67.40;;;;;;2265072;56;20937;-73
2021/01/13 12:23:55;;;;;;;6.18;3.87;;;10.10;65.90;;;;;;2467584;55;20996;-73
2021/01/13 12:26:56;;;;;;;9.23;5.07;;;10.00;66.00;;;;;;2482441;55;21088;-74
2021/01/13 12:29:23;;;;;;;7.55;4.45;;;10.00;64.80;;;;;;2484019;55;20949;-73
2021/01/13 12:31:52;;;;;;;8.48;4.95;;;10.00;66.10;;;;;;2478717;55;20945;-74
2021/01/13 12:34:21;;;;;;;8.70;4.95;;;9.90;66.00;;;;;;2481025;55;20922;-73
2021/01/13 12:36:49;;;;;;;8.02;5.20;;;9.90;66.40;;;;;;2485144;55;21485;-73
2021/01/13 12:39:25;;;;;;;9.07;4.30;;;9.80;66.30;;;;;;2256698;59;21057;-73
2021/01/13 12:41:52;;;;;;;5.97;3.87;;;9.80;66.80;;;;;;2251050;56;21053;-73
2021/01/13 12:44:20;;;;;;;7.68;3.87;;;9.80;68.50;;;;;;2481219;55;20965;-74
2021/01/13 12:46:51;;;;;;;7.55;4.00;;;9.90;68.60;;;;;;2478180;55;21766;-73
2021/01/13 12:52:57;;;;;;;7.28;3.72;;;9.90;67.90;;;;;;2482381;55;21021;-73
2021/01/13 12:55:24;;;;;;;8.15;3.85;;;10.00;67.80;;;;;;2478824;55;20937;-73
2021/01/13 12:57:51;;;;;;;7.82;3.42;;;10.10;67.30;;;;;;2483605;55;21053;-73
2021/01/13 13:00:21;;;;;;;6.65;3.67;;;10.10;67.80;;;;;;2479738;55;20913;-73
2021/01/13 13:02:49;;;;;;;5.70;3.23;;;10.20;67.40;;;;;;2261300;56;20957;-73
2021/01/13 13:05:16;;;;;;;7.57;4.03;;;10.30;67.20;;;;;;2257471;56;20956;-72
2021/01/13 13:07:43;;;;;;;6.15;3.55;;;10.30;66.80;;;;;;2482127;55;20914;-73
2021/01/13 13:10:11;;;;;;;5.75;3.70;;;10.40;67.30;;;;;;2484178;55;21085;-72
2021/01/13 13:12:37;;;;;;;6.97;3.67;;;10.40;66.50;;;;;;2482805;55;21485;-72
2021/01/13 13:15:04;;;;;;;8.05;4.45;;;10.40;66.60;;;;;;2480988;55;22017;-72
2021/01/13 13:17:31;;;;;;;7.78;4.12;;;10.40;65.80;;;;;;2480947;55;20950;-72
2021/01/13 13:20:12;;;;;;;6.93;4.00;;;10.40;65.50;;;;;;2480764;55;20984;-72
2021/01/13 13:22:39;;;;;;;7.00;3.70;;;10.30;64.20;;;;;;2478048;55;21021;-72
2021/01/13 13:25:06;;;;;;;7.07;3.58;;;10.30;65.10;;;;;;2250501;56;20957;-72
2021/01/13 13:27:36;;;;;;;7.20;4.43;;;10.20;66.00;;;;;;2252241;56;21708;-72
2021/01/13 13:30:05;;;;;;;8.05;4.35;;;10.20;65.80;;;;;;2257728;56;20974;-72
2021/01/13 13:32:33;;;;;;;8.98;4.82;;;10.10;65.20;;;;;;2477218;55;20945;-71
2021/01/13 13:34:59;;;;;;;7.03;4.55;;;10.10;64.50;;;;;;2478364;55;20944;-71
2021/01/13 13:37:27;;;;;;;7.45;4.60;;;9.90;65.90;;;;;;2482535;55;20893;-71
2021/01/13 13:39:55;;;;;;;7.50;3.95;;;9.80;66.20;;;;;;2482561;55;21667;-71
2021/01/13 13:42:33;;;;;;;6.85;3.80;;;9.70;66.20;;;;;;2475772;55;20980;-71
2021/01/13 13:44:59;;;;;;;8.55;4.20;;;9.70;66.40;;;;;;2483456;55;20980;-72
2021/01/13 13:47:25;;;;;;;7.35;3.80;;;9.60;66.90;;;;;;2478439;55;21296;-72
2021/01/13 13:49:53;;;;;;;5.95;3.35;;;9.50;66.20;;;;;;2485769;55;20983;-72
2021/01/13 13:52:19;;;;;;;6.50;3.65;;;9.40;66.50;;;;;;2259882;56;20949;-72
2021/01/13 13:54:55;;;;;;;6.45;3.22;;;9.30;66.60;;;;;;2463848;55;21029;-72
2021/01/13 13:57:21;;;;;;;5.90;3.05;;;9.30;66.60;;;;;;2259217;56;21902;-72
2021/01/13 14:00:00;;;;;;;4.45;2.78;;;9.20;67.10;;;;;;2257189;56;20965;-72
2021/01/13 14:02:27;;;;;;;6.32;3.17;;;9.20;67.00;;;;;;2477616;55;21302;-71
2021/01/13 14:04:54;;;;;;;8.27;3.30;;;9.10;67.60;;;;;;2481849;55;22017;-72
2021/01/13 14:07:20;;;;;;;5.43;2.92;;;9.10;67.60;;;;;;2478229;55;20960;-72
2021/01/13 14:09:47;;;;;;;6.57;3.22;;;9.00;67.70;;;;;;2469230;55;20948;-71
2021/01/13 14:12:13;;;;;;;5.57;3.03;;;9.00;67.70;;;;;;2255374;56;21635;-71
2021/01/13 14:14:40;;;;;;;6.32;3.15;;;9.00;67.50;;;;;;2479482;55;21319;-72